Time;durP1;ratioP1;P1;durP2;ratioP2;P2;SDS_P1;SDS_P2;PMS_P1;PMS_P2;Temp;Humidity;BMP_temperature;BMP_pressure;BME280_temperature;BME280_humidity;BME280_pressure;Samples;Min_cycle;Max_cycle;Signal;HPM_P1;HPM_P2
2022/06/12 00:00:25;;;;;;;6.35;5.75;;;21.50;99.90;;;;;;10288086;28;20212;-84
2022/06/12 00:05:30;;;;;;;6.45;5.72;;;21.50;99.90;;;;;;10287759;28;20237;-85
2022/06/12 00:10:34;;;;;;;6.55;5.93;;;21.50;99.90;;;;;;10288111;28;20225;-84
2022/06/12 00:15:36;;;;;;;5.82;5.25;;;21.50;99.90;;;;;;10306924;28;20250;-84
2022/06/12 00:20:39;;;;;;;7.60;6.90;;;21.50;99.90;;;;;;10259180;28;20720;-84
2022/06/12 00:25:43;;;;;;;6.63;5.93;;;21.60;99.90;;;;;;10247763;29;20646;-84
2022/06/12 00:30:45;;;;;;;6.03;5.43;;;21.50;99.90;;;;;;10261321;28;20288;-84
2022/06/12 00:35:48;;;;;;;6.35;5.63;;;21.60;99.90;;;;;;10276479;28;20201;-84
2022/06/12 00:40:50;;;;;;;9.15;7.63;;;21.60;99.90;;;;;;10282762;28;20233;-84
2022/06/12 00:45:59;;;;;;;6.07;5.45;;;21.60;99.90;;;;;;10277048;28;20249;-83
2022/06/12 00:51:08;;;;;;;6.35;5.57;;;21.60;99.90;;;;;;10250180;29;20257;-84
2022/06/12 00:56:21;;;;;;;7.32;5.82;;;21.60;99.90;;;;;;10254494;29;20296;-84
2022/06/12 01:01:33;;;;;;;6.53;5.88;;;21.60;99.90;;;;;;10298323;28;20626;-84
2022/06/12 01:06:36;;;;;;;6.45;5.85;;;21.60;99.90;;;;;;10317320;28;20279;-84
2022/06/12 01:11:43;;;;;;;6.30;5.80;;;21.60;99.90;;;;;;10270798;28;20198;-84
2022/06/12 01:16:48;;;;;;;5.93;5.18;;;21.60;99.90;;;;;;10321246;28;20281;-84
2022/06/12 01:22:18;;;;;;;6.70;6.00;;;21.60;99.90;;;;;;10280527;28;20233;-84
2022/06/12 01:27:45;;;;;;;6.50;5.88;;;21.60;99.90;;;;;;10265885;28;20360;-84
2022/06/12 01:33:01;;;;;;;7.00;6.32;;;21.60;99.90;;;;;;10280721;28;20700;-84
2022/06/12 01:38:23;;;;;;;7.20;6.60;;;21.60;99.90;;;;;;10292537;28;20236;-84
2022/06/12 01:43:36;;;;;;;5.90;5.25;;;21.60;99.90;;;;;;10271411;28;20264;-84
2022/06/12 01:48:42;;;;;;;6.30;5.70;;;21.60;99.90;;;;;;10292773;28;20308;-84
2022/06/12 01:54:15;;;;;;;6.13;5.57;;;21.60;99.90;;;;;;10292715;28;21083;-84
2022/06/12 01:59:38;;;;;;;6.05;5.65;;;21.60;99.90;;;;;;10322364;28;20290;-84
2022/06/12 02:05:03;;;;;;;7.18;6.35;;;21.60;99.90;;;;;;10333414;28;20234;-84
2022/06/12 02:10:15;;;;;;;9.32;6.10;;;21.60;99.90;;;;;;10331391;28;20673;-84
2022/06/12 02:15:50;;;;;;;6.72;6.07;;;21.60;99.90;;;;;;10273305;28;20746;-84
2022/06/12 02:21:17;;;;;;;6.78;6.18;;;21.50;99.90;;;;;;10251729;29;20234;-84
2022/06/12 02:26:29;;;;;;;6.65;6.00;;;21.50;99.90;;;;;;10240840;28;20777;-84
2022/06/12 02:31:36;;;;;;;7.10;6.35;;;21.50;99.90;;;;;;10290342;28;20265;-84
2022/06/12 02:36:47;;;;;;;6.20;5.68;;;21.50;99.90;;;;;;10266903;28;20276;-84
2022/06/12 02:41:55;;;;;;;6.28;5.65;;;21.50;99.90;;;;;;10233963;29;20194;-84
2022/06/12 02:47:15;;;;;;;6.32;5.57;;;21.50;99.90;;;;;;10265406;28;20718;-84
2022/06/12 02:52:34;;;;;;;6.03;5.43;;;21.50;99.90;;;;;;10233446;29;20618;-84
2022/06/12 02:57:51;;;;;;;8.18;6.00;;;21.50;99.90;;;;;;10265432;28;20252;-84
2022/06/12 03:03:12;;;;;;;6.38;5.88;;;21.50;99.90;;;;;;10255433;28;20296;-84
2022/06/12 03:08:21;;;;;;;7.50;6.70;;;21.50;99.90;;;;;;10289480;28;20284;-84
2022/06/12 03:13:26;;;;;;;5.97;5.47;;;21.50;99.90;;;;;;10271695;28;20674;-84
2022/06/12 03:18:33;;;;;;;6.35;5.82;;;21.50;99.90;;;;;;10253960;28;20609;-84
2022/06/12 03:24:04;;;;;;;6.32;5.72;;;21.50;99.90;;;;;;10258647;28;20241;-84
2022/06/12 03:29:41;;;;;;;7.20;6.22;;;21.50;99.90;;;;;;10271849;28;20289;-84
2022/06/12 03:34:47;;;;;;;6.78;5.32;;;21.50;99.90;;;;;;10265077;28;20214;-84
2022/06/12 03:39:56;;;;;;;6.40;5.90;;;21.50;99.90;;;;;;10281798;28;20298;-84
2022/06/12 03:45:09;;;;;;;6.80;6.20;;;21.50;99.90;;;;;;10272688;28;20295;-84
2022/06/12 03:50:35;;;;;;;6.13;5.63;;;21.50;99.90;;;;;;10249201;29;20654;-84
2022/06/12 04:01:08;;;;;;;6.13;5.63;;;21.50;99.90;;;;;;10250294;28;20253;-84
2022/06/12 04:06:21;;;;;;;6.18;5.63;;;21.50;99.90;;;;;;10268036;28;20307;-84
2022/06/12 04:11:26;;;;;;;6.60;6.00;;;21.50;99.90;;;;;;10301766;28;20206;-84
2022/06/12 04:16:47;;;;;;;5.60;5.18;;;21.60;99.90;;;;;;10297369;28;20368;-84
2022/06/12 04:21:55;;;;;;;6.40;5.80;;;21.60;99.90;;;;;;10262006;28;20257;-84
2022/06/12 04:27:05;;;;;;;6.20;5.63;;;21.60;99.90;;;;;;10305890;28;20299;-84
2022/06/12 04:32:08;;;;;;;5.63;5.13;;;21.70;99.90;;;;;;10284912;28;20601;-84
2022/06/12 04:37:17;;;;;;;5.25;4.85;;;21.90;99.90;;;;;;10273102;28;20223;-84
2022/06/12 04:42:22;;;;;;;5.55;5.10;;;21.80;99.90;;;;;;10328745;28;20209;-85
2022/06/12 04:47:25;;;;;;;6.03;5.43;;;21.60;99.90;;;;;;10336670;28;20194;-85
2022/06/12 04:52:28;;;;;;;5.80;5.30;;;21.70;99.90;;;;;;10337552;28;20377;-85
2022/06/12 04:57:31;;;;;;;5.60;5.10;;;21.70;99.90;;;;;;10353692;28;20177;-85
2022/06/12 05:02:33;;;;;;;5.88;5.38;;;21.70;99.90;;;;;;10315586;28;20189;-85
2022/06/12 05:07:36;;;;;;;5.72;5.22;;;21.70;99.90;;;;;;10336421;28;20248;-85
2022/06/12 05:12:38;;;;;;;5.30;4.90;;;21.70;99.90;;;;;;10353543;28;20201;-84
2022/06/12 05:17:44;;;;;;;6.30;5.80;;;21.60;99.90;;;;;;10334013;28;20182;-85
2022/06/12 05:22:47;;;;;;;5.82;5.32;;;21.60;99.90;;;;;;10327540;28;20186;-85
2022/06/12 05:27:51;;;;;;;6.50;5.88;;;21.70;99.90;;;;;;10325660;28;20228;-85
2022/06/12 05:32:55;;;;;;;6.35;5.82;;;21.60;99.90;;;;;;10329813;28;20275;-85
2022/06/12 05:38:00;;;;;;;5.68;4.40;;;21.60;99.90;;;;;;10315027;28;20193;-85
2022/06/12 05:43:03;;;;;;;5.80;5.30;;;21.50;99.90;;;;;;10330051;28;20177;-85
2022/06/12 05:48:16;;;;;;;5.72;5.22;;;21.60;99.90;;;;;;10312197;28;20528;-85
2022/06/12 05:53:20;;;;;;;5.88;4.78;;;21.50;99.90;;;;;;10345536;28;20182;-85
2022/06/12 05:58:26;;;;;;;5.85;5.03;;;21.60;99.90;;;;;;10327506;28;20183;-85
2022/06/12 06:03:28;;;;;;;5.50;5.05;;;21.50;99.90;;;;;;10308874;28;20218;-85
2022/06/12 06:08:31;;;;;;;5.15;4.75;;;21.70;99.90;;;;;;10347019;28;20232;-85
2022/06/12 06:13:34;;;;;;;5.68;5.15;;;21.80;99.90;;;;;;10347804;28;20197;-85
2022/06/12 06:18:40;;;;;;;6.40;5.13;;;21.90;99.90;;;;;;10346822;28;20178;-85
2022/06/12 06:23:43;;;;;;;5.35;4.95;;;21.80;99.90;;;;;;10300109;28;20182;-85
2022/06/12 06:28:48;;;;;;;6.25;5.00;;;21.80;99.90;;;;;;10289712;28;20230;-85
2022/06/12 06:33:51;;;;;;;5.70;4.80;;;22.00;99.90;;;;;;10287942;28;20214;-87
2022/06/12 06:38:55;;;;;;;5.80;5.30;;;22.20;99.90;;;;;;10319266;28;20226;-86
2022/06/12 06:49:21;;;;;;;8.23;4.40;;;22.30;99.90;;;;;;10341217;28;20240;-86
2022/06/12 06:54:24;;;;;;;4.22;3.35;;;22.40;99.90;;;;;;10305597;28;20199;-86
2022/06/12 06:59:26;;;;;;;4.95;4.18;;;22.40;99.90;;;;;;10285028;28;20622;-85
2022/06/12 07:04:29;;;;;;;4.88;4.47;;;22.50;99.90;;;;;;10340504;28;20182;-85
2022/06/12 07:09:33;;;;;;;4.90;4.50;;;22.70;99.90;;;;;;10345525;28;20205;-84
2022/06/12 07:14:35;;;;;;;5.05;4.60;;;22.70;99.90;;;;;;10331250;28;20268;-84
2022/06/12 07:19:38;;;;;;;4.78;4.35;;;22.80;99.90;;;;;;10327006;28;20429;-85
2022/06/12 07:24:42;;;;;;;13.38;3.58;;;22.90;99.90;;;;;;10317661;28;20236;-84
2022/06/12 07:29:44;;;;;;;4.88;3.75;;;22.90;99.90;;;;;;10330586;28;20288;-84
2022/06/12 07:34:47;;;;;;;5.32;4.68;;;23.00;99.90;;;;;;10292560;28;20625;-84
2022/06/12 07:39:50;;;;;;;4.88;2.40;;;23.10;99.90;;;;;;10264783;28;20209;-84
2022/06/12 07:44:52;;;;;;;4.13;3.72;;;23.10;99.90;;;;;;10291519;28;20213;-84
2022/06/12 07:49:55;;;;;;;5.40;4.60;;;23.30;99.90;;;;;;10275884;28;20230;-84
2022/06/12 07:54:58;;;;;;;4.32;3.50;;;23.40;99.90;;;;;;10277521;28;20542;-84
2022/06/12 08:00:01;;;;;;;4.70;4.30;;;23.40;99.90;;;;;;10314412;28;20196;-84
2022/06/12 08:05:15;;;;;;;4.82;4.22;;;23.50;99.90;;;;;;10330241;28;20190;-84
2022/06/12 08:10:18;;;;;;;4.63;4.22;;;23.50;99.90;;;;;;10296087;28;20276;-84
2022/06/12 08:15:24;;;;;;;5.43;4.85;;;23.60;99.90;;;;;;10298430;28;20213;-85
2022/06/12 08:20:30;;;;;;;4.03;3.63;;;23.60;99.90;;;;;;10319490;28;20570;-85
2022/06/12 08:25:36;;;;;;;5.65;4.25;;;23.60;99.90;;;;;;10298768;28;20269;-84
2022/06/12 08:30:38;;;;;;;4.43;4.03;;;23.80;99.90;;;;;;10272683;28;20229;-85
2022/06/12 08:35:41;;;;;;;4.10;3.80;;;23.50;99.90;;;;;;10292981;28;20267;-85
2022/06/12 08:41:03;;;;;;;4.43;4.03;;;23.70;99.90;;;;;;10307015;28;20209;-85
2022/06/12 08:46:35;;;;;;;6.45;3.80;;;23.90;99.90;;;;;;10272510;28;20589;-84
2022/06/12 08:52:13;;;;;;;3.00;2.70;;;24.20;99.90;;;;;;10255969;28;20238;-85
2022/06/12 08:57:23;;;;;;;4.88;4.47;;;23.90;95.60;;;;;;10301864;28;20738;-85
2022/06/12 09:02:35;;;;;;;3.92;2.88;;;24.00;99.90;;;;;;10293351;28;20260;-84
2022/06/12 09:07:48;;;;;;;4.22;3.83;;;23.90;95.40;;;;;;10300734;28;20314;-85
2022/06/12 09:12:55;;;;;;;3.92;3.53;;;24.00;98.70;;;;;;10299211;28;20194;-85
2022/06/12 09:19:03;;;;;;;5.53;3.53;;;23.90;99.30;;;;;;10289019;28;20210;-85
2022/06/12 09:24:32;;;;;;;4.32;3.72;;;23.90;99.70;;;;;;10051707;29;20246;-85
2022/06/12 09:29:41;;;;;;;4.97;4.57;;;24.00;99.60;;;;;;10052417;29;20281;-85
2022/06/12 09:34:55;;;;;;;5.00;4.50;;;23.70;99.90;;;;;;10000364;29;20720;-84
2022/06/12 09:40:21;;;;;;;5.15;3.20;;;23.80;99.90;;;;;;10019175;29;20246;-84
2022/06/12 09:45:38;;;;;;;4.13;3.83;;;23.60;99.90;;;;;;10028559;29;20258;-84
2022/06/12 09:51:11;;;;;;;4.70;2.63;;;24.00;99.10;;;;;;10168481;23;20331;-79
2022/06/12 09:56:20;;;;;;;3.90;3.60;;;23.90;97.10;;;;;;10269954;28;20771;-80
2022/06/12 10:01:27;;;;;;;4.25;3.95;;;23.80;99.50;;;;;;10257154;28;20245;-80
2022/06/12 10:06:42;;;;;;;5.32;3.22;;;23.80;99.90;;;;;;10233335;28;20757;-81
2022/06/12 10:12:20;;;;;;;6.13;2.30;;;23.80;95.70;;;;;;10243607;28;20780;-80
2022/06/12 10:17:30;;;;;;;4.32;3.13;;;24.10;93.60;;;;;;10281066;23;20259;-95
2022/06/12 10:22:40;;;;;;;3.17;2.60;;;24.30;93.30;;;;;;10279640;28;20241;-96
2022/06/12 10:27:48;;;;;;;5.03;2.58;;;24.60;93.20;;;;;;10278215;28;20422;-96
2022/06/12 10:32:53;;;;;;;5.90;2.70;;;25.10;92.20;;;;;;10260976;28;20233;-96
2022/06/12 10:38:06;;;;;;;3.90;2.65;;;25.10;91.80;;;;;;10270675;28;20268;-96
2022/06/12 10:43:22;;;;;;;2.28;2.17;;;25.30;90.40;;;;;;10276994;28;20197;-95
2022/06/12 10:48:30;;;;;;;3.67;3.15;;;25.30;91.70;;;;;;10293710;28;20205;-96
2022/06/12 10:53:34;;;;;;;6.40;3.33;;;25.00;91.90;;;;;;10284772;28;20190;-96
2022/06/12 10:58:51;;;;;;;4.88;3.45;;;25.50;91.50;;;;;;10260752;28;20277;-96
2022/06/12 11:04:03;;;;;;;5.72;2.65;;;25.40;90.30;;;;;;10271806;28;20213;-95
2022/06/12 11:09:41;;;;;;;3.47;3.00;;;25.40;91.40;;;;;;10283780;28;20248;-95
2022/06/12 11:15:13;;;;;;;2.80;2.60;;;25.80;90.30;;;;;;10279559;28;20226;-95
2022/06/12 11:20:40;;;;;;;3.75;2.85;;;25.60;91.00;;;;;;10268983;28;20205;-96
2022/06/12 11:26:21;;;;;;;2.90;2.10;;;25.00;91.80;;;;;;10277472;28;20197;-96
2022/06/12 11:32:00;;;;;;;8.20;3.10;;;25.30;90.80;;;;;;10276977;28;20599;-95
2022/06/12 11:37:36;;;;;;;3.28;2.75;;;25.10;91.30;;;;;;10271035;28;20202;-95
2022/06/12 11:42:47;;;;;;;3.10;2.78;;;24.70;92.20;;;;;;10260216;28;20206;-94
2022/06/12 11:48:34;;;;;;;3.78;2.83;;;24.10;93.70;;;;;;10254616;28;20221;-96
2022/06/12 11:53:44;;;;;;;4.07;3.55;;;23.70;95.00;;;;;;10259975;28;20229;-95
2022/06/12 11:58:58;;;;;;;3.53;3.15;;;23.50;95.20;;;;;;10276767;28;20598;-96
2022/06/12 12:04:46;;;;;;;4.82;3.10;;;23.50;95.80;;;;;;10276291;28;20209;-95
2022/06/12 12:09:54;;;;;;;3.40;3.10;;;23.20;96.80;;;;;;10274932;28;20225;-96
2022/06/12 12:15:02;;;;;;;3.35;3.10;;;23.10;96.80;;;;;;10282722;28;20225;-96
2022/06/12 12:20:27;;;;;;;2.75;2.50;;;23.10;97.40;;;;;;10274394;28;20229;-95
2022/06/12 12:25:36;;;;;;;4.45;3.35;;;23.00;97.50;;;;;;10265292;28;20206;-96
2022/06/12 12:30:41;;;;;;;5.32;2.65;;;23.40;96.60;;;;;;10281924;28;20288;-96
2022/06/12 12:41:15;;;;;;;4.03;2.80;;;23.80;97.30;;;;;;10254569;28;20237;-94
2022/06/12 12:46:19;;;;;;;4.47;3.30;;;23.90;96.50;;;;;;10266544;28;20214;-95
2022/06/12 12:51:30;;;;;;;3.25;2.95;;;24.20;95.40;;;;;;10262818;28;20229;-96
2022/06/12 12:56:34;;;;;;;3.70;2.28;;;24.40;95.30;;;;;;10264404;28;20746;-95
2022/06/12 13:01:46;;;;;;;5.25;3.70;;;24.60;94.60;;;;;;10295116;28;20214;-95
2022/06/12 13:07:10;;;;;;;4.10;2.92;;;24.80;94.10;;;;;;10281381;28;20206;-96
2022/06/12 13:12:45;;;;;;;3.58;2.88;;;24.70;93.20;;;;;;10264571;28;20234;-95
2022/06/12 13:18:02;;;;;;;5.22;2.33;;;25.30;92.60;;;;;;10279922;28;20233;-96
2022/06/12 13:23:29;;;;;;;5.20;3.17;;;25.20;92.80;;;;;;10279896;28;20252;-93
2022/06/12 13:28:33;;;;;;;2.67;2.38;;;24.80;92.50;;;;;;10279473;28;20257;-94
2022/06/12 13:33:36;;;;;;;3.10;2.80;;;24.20;93.10;;;;;;10241724;28;20229;-94
2022/06/12 13:38:53;;;;;;;3.42;3.13;;;24.50;92.90;;;;;;10256006;28;20206;-95
2022/06/12 13:43:56;;;;;;;6.97;3.20;;;24.40;94.40;;;;;;10253758;29;20265;-94
2022/06/12 13:49:00;;;;;;;3.58;2.50;;;24.60;88.80;;;;;;10253317;29;20296;-94
2022/06/12 13:54:18;;;;;;;4.05;2.78;;;25.00;91.50;;;;;;10236244;29;20253;-93
2022/06/12 13:59:24;;;;;;;3.10;2.80;;;24.90;90.90;;;;;;10252643;29;20773;-94
2022/06/12 14:04:29;;;;;;;3.47;2.67;;;24.90;91.10;;;;;;10254762;29;20202;-94
2022/06/12 14:09:34;;;;;;;4.90;2.50;;;25.30;86.60;;;;;;10221251;29;20294;-94
2022/06/12 14:14:42;;;;;;;3.05;2.30;;;26.10;91.80;;;;;;10242180;28;20264;-93
2022/06/12 14:19:56;;;;;;;3.00;2.45;;;26.40;87.90;;;;;;10274620;28;20277;-93
2022/06/12 14:25:22;;;;;;;2.70;2.50;;;26.20;86.60;;;;;;10274166;28;20210;-93
2022/06/12 14:31:05;;;;;;;3.78;2.70;;;25.30;91.00;;;;;;10294817;28;20292;-93
2022/06/12 14:36:24;;;;;;;2.58;2.38;;;25.20;90.50;;;;;;10267814;28;20598;-94
2022/06/12 14:41:28;;;;;;;7.00;3.15;;;25.00;92.40;;;;;;10277159;28;20845;-95
2022/06/12 14:46:32;;;;;;;6.80;3.53;;;25.00;91.90;;;;;;10276160;28;20213;-94
2022/06/12 14:51:34;;;;;;;3.00;2.45;;;25.50;92.20;;;;;;10274924;28;20283;-95
2022/06/12 14:56:39;;;;;;;5.70;2.92;;;24.90;92.30;;;;;;10294146;28;20230;-95
2022/06/12 15:01:42;;;;;;;3.20;2.90;;;25.00;88.50;;;;;;10276110;28;20226;-95
2022/06/12 15:06:45;;;;;;;13.65;3.17;;;25.10;89.40;;;;;;10292308;28;20213;-95
2022/06/12 15:11:47;;;;;;;5.00;2.85;;;25.30;93.40;;;;;;10276377;28;20226;-95
2022/06/12 15:16:50;;;;;;;3.75;3.33;;;25.20;93.00;;;;;;10275551;28;20234;-95
2022/06/12 15:21:52;;;;;;;4.60;3.30;;;24.80;93.30;;;;;;10291784;28;20249;-95
2022/06/12 15:32:27;;;;;;;5.82;2.92;;;24.00;96.10;;;;;;10293149;28;20614;-95
2022/06/12 15:37:30;;;;;;;3.30;3.00;;;23.70;99.70;;;;;;10277039;28;20598;-95
2022/06/12 15:42:32;;;;;;;4.25;3.15;;;23.60;98.20;;;;;;10293260;28;20540;-96
2022/06/12 15:47:35;;;;;;;3.70;3.38;;;23.40;98.20;;;;;;10276993;28;20214;-96
2022/06/12 15:52:37;;;;;;;4.32;3.55;;;23.20;99.00;;;;;;10292188;28;20233;-94
2022/06/12 15:57:40;;;;;;;3.58;3.33;;;23.00;99.60;;;;;;10275179;28;20550;-94
2022/06/12 16:02:42;;;;;;;3.85;3.35;;;22.50;99.90;;;;;;10274145;28;20271;-96
2022/06/12 16:07:45;;;;;;;3.75;3.45;;;22.40;99.90;;;;;;10275911;28;20209;-96
2022/06/12 16:12:53;;;;;;;3.80;3.50;;;22.10;99.90;;;;;;10276795;28;20234;-95
2022/06/12 16:18:00;;;;;;;4.20;2.58;;;22.20;99.90;;;;;;10274658;28;20233;-95
2022/06/12 16:23:03;;;;;;;7.45;5.78;;;22.40;99.90;;;;;;10288846;28;20201;-90
2022/06/12 16:28:05;;;;;;;12.13;5.15;;;22.70;99.90;;;;;;10293195;28;20237;-83
2022/06/12 16:33:09;;;;;;;7.75;5.72;;;23.10;99.90;;;;;;10279451;28;20249;-83
2022/06/12 16:38:14;;;;;;;6.40;5.28;;;23.50;99.90;;;;;;10288294;28;20221;-83
2022/06/12 16:43:16;;;;;;;4.82;4.43;;;24.00;99.90;;;;;;10306700;28;20280;-82
2022/06/12 16:48:20;;;;;;;6.05;4.53;;;24.30;99.90;;;;;;10287075;28;20240;-83
2022/06/12 16:53:24;;;;;;;4.85;4.38;;;24.40;99.90;;;;;;10270215;28;20222;-84
2022/06/12 16:58:27;;;;;;;4.63;4.22;;;24.50;99.90;;;;;;10300902;28;20300;-83
2022/06/12 17:03:29;;;;;;;7.50;6.05;;;24.60;99.90;;;;;;10287134;28;20280;-82
2022/06/12 17:08:32;;;;;;;6.82;4.68;;;24.00;99.90;;;;;;10268923;28;20225;-82
2022/06/12 17:13:34;;;;;;;5.18;4.78;;;23.70;99.90;;;;;;10287783;28;20304;-81
2022/06/12 17:23:57;;;;;;;4.57;4.10;;;24.80;99.90;;;;;;10292225;28;20239;-81
2022/06/12 17:29:00;;;;;;;6.95;5.20;;;24.80;99.90;;;;;;10280240;28;21112;-88
2022/06/12 17:34:04;;;;;;;5.93;5.40;;;24.60;99.90;;;;;;10288185;28;20206;-82
2022/06/12 17:39:06;;;;;;;6.10;5.50;;;24.40;99.90;;;;;;10292732;28;20230;-81
2022/06/12 17:44:08;;;;;;;7.47;5.00;;;24.50;99.90;;;;;;10292382;28;20221;-82
2022/06/12 17:49:11;;;;;;;6.00;5.13;;;24.70;99.90;;;;;;10317792;28;20267;-82
2022/06/12 17:54:17;;;;;;;5.03;4.63;;;24.70;99.90;;;;;;10304250;28;20640;-82
2022/06/12 17:59:20;;;;;;;9.30;5.22;;;24.70;99.90;;;;;;10279537;28;20570;-81
2022/06/12 18:04:23;;;;;;;5.63;5.10;;;24.80;99.90;;;;;;10274859;28;20619;-83
2022/06/12 18:09:25;;;;;;;5.88;5.22;;;24.90;99.90;;;;;;10318434;28;20245;-82
2022/06/12 18:19:01;;;;;;;4.65;4.25;;;24.80;99.90;;;;;;10290843;28;20252;-82
2022/06/12 18:19:50;;;;;;;4.82;4.30;;;24.80;99.90;;;;;;10317249;28;20299;-82
2022/06/12 18:24:53;;;;;;;11.25;7.20;;;24.70;99.90;;;;;;10287981;28;20229;-82
2022/06/12 18:29:56;;;;;;;8.23;7.10;;;24.10;99.90;;;;;;10314736;28;20244;-86
2022/06/12 18:34:58;;;;;;;9.15;7.93;;;22.40;99.90;;;;;;10290871;28;20688;-86
2022/06/12 18:40:03;;;;;;;9.93;8.40;;;22.90;99.90;;;;;;10305676;28;20236;-82
2022/06/12 18:45:07;;;;;;;10.98;8.80;;;20.70;99.90;;;;;;10294513;28;20264;-81
2022/06/12 18:50:11;;;;;;;11.73;9.00;;;20.10;99.90;;;;;;10310234;28;20252;-81
2022/06/12 18:55:14;;;;;;;9.38;8.57;;;19.60;99.90;;;;;;10327430;28;20264;-84
2022/06/12 19:00:22;;;;;;;10.52;9.35;;;19.30;99.90;;;;;;10310814;28;20279;-83
2022/06/12 19:05:25;;;;;;;17.52;9.48;;;19.10;99.90;;;;;;10307117;28;20300;-82
2022/06/12 19:10:28;;;;;;;10.30;9.23;;;;;;;;;;10298626;28;20244;-82
2022/06/12 19:15:31;;;;;;;12.60;9.57;;;18.70;99.90;;;;;;10325002;28;20285;-83
2022/06/12 19:20:33;;;;;;;13.43;11.80;;;18.30;99.90;;;;;;10305990;28;20206;-82
2022/06/12 19:25:36;;;;;;;13.20;11.80;;;18.00;99.90;;;;;;10298798;28;20217;-82
2022/06/12 19:30:38;;;;;;;14.57;11.23;;;17.80;99.90;;;;;;10311861;28;20265;-82
2022/06/12 19:35:43;;;;;;;12.98;11.68;;;17.70;99.90;;;;;;10275245;28;20228;-82
2022/06/12 19:40:46;;;;;;;10.30;8.18;;;17.70;99.90;;;;;;10316857;28;20232;-82
2022/06/12 19:45:49;;;;;;;9.23;7.05;;;20.00;99.90;;;;;;10311759;28;20710;-82
2022/06/12 19:50:51;;;;;;;7.07;6.38;;;21.20;99.90;;;;;;10299242;28;20256;-82
2022/06/12 19:55:54;;;;;;;6.50;6.00;;;21.90;99.90;;;;;;10317220;28;20251;-82
2022/06/12 20:01:03;;;;;;;6.38;5.78;;;22.30;99.90;;;;;;10264951;28;21111;-81
2022/06/12 20:11:27;;;;;;;6.00;5.40;;;22.80;99.90;;;;;;10286770;28;20278;-83
2022/06/12 20:16:30;;;;;;;5.45;5.05;;;22.90;99.90;;;;;;10278608;28;20328;-81
2022/06/12 20:21:32;;;;;;;6.28;5.53;;;23.00;99.90;;;;;;10273399;28;20279;-81
2022/06/12 20:26:35;;;;;;;5.60;5.10;;;23.10;99.90;;;;;;10268813;28;20225;-82
2022/06/12 20:31:38;;;;;;;6.05;5.45;;;23.10;99.90;;;;;;10300195;28;20241;-82
2022/06/12 20:36:41;;;;;;;5.80;5.30;;;23.10;99.90;;;;;;10292393;28;20692;-82
2022/06/12 20:41:44;;;;;;;6.05;5.45;;;23.20;99.90;;;;;;10288124;28;20225;-82
2022/06/12 20:46:49;;;;;;;5.40;4.97;;;23.20;99.90;;;;;;10312802;28;20306;-82
2022/06/12 20:51:52;;;;;;;5.88;5.38;;;23.20;99.90;;;;;;10275662;28;20312;-82
2022/06/12 20:56:54;;;;;;;5.35;4.85;;;23.20;99.90;;;;;;10276315;28;20304;-81
2022/06/12 21:01:57;;;;;;;5.30;4.80;;;23.20;99.90;;;;;;10324521;28;20284;-81
2022/06/12 21:06:59;;;;;;;5.20;4.70;;;23.20;99.90;;;;;;10309192;28;20256;-82
2022/06/12 21:12:02;;;;;;;5.38;4.88;;;23.20;99.90;;;;;;10288289;28;20307;-81
2022/06/12 21:17:05;;;;;;;5.70;5.10;;;23.10;99.90;;;;;;10291147;28;20285;-81
2022/06/12 21:22:08;;;;;;;5.05;4.65;;;23.20;99.90;;;;;;10303542;28;20621;-81
2022/06/12 21:27:10;;;;;;;5.53;4.70;;;23.10;99.90;;;;;;10296761;28;20236;-82
2022/06/12 21:32:13;;;;;;;5.45;5.05;;;23.10;99.90;;;;;;10293196;28;20249;-81
2022/06/12 21:37:15;;;;;;;5.15;4.75;;;23.10;99.90;;;;;;10279529;28;20300;-82
2022/06/12 21:42:19;;;;;;;4.95;4.55;;;23.10;99.90;;;;;;10297516;28;20229;-81
2022/06/12 21:47:21;;;;;;;5.35;4.88;;;23.00;99.90;;;;;;10292632;28;20284;-81
2022/06/12 21:57:45;;;;;;;5.30;4.90;;;23.00;99.90;;;;;;10277711;28;20221;-82
2022/06/12 22:02:49;;;;;;;5.20;4.78;;;23.00;99.90;;;;;;10289073;28;20240;-81
2022/06/12 22:07:52;;;;;;;5.10;4.70;;;23.00;99.90;;;;;;10308252;28;20237;-81
2022/06/12 22:12:54;;;;;;;5.40;4.90;;;22.90;99.90;;;;;;10274838;28;20253;-81
2022/06/12 22:17:57;;;;;;;4.93;4.53;;;22.90;99.90;;;;;;10291151;28;20257;-82
2022/06/12 22:22:59;;;;;;;4.88;4.40;;;22.90;99.90;;;;;;10304460;28;20228;-83
2022/06/12 22:28:02;;;;;;;4.97;4.53;;;22.90;99.90;;;;;;10312490;28;20246;-82
2022/06/12 22:33:04;;;;;;;4.55;4.22;;;22.90;99.90;;;;;;10313387;28;20319;-82
2022/06/12 22:38:07;;;;;;;4.95;4.55;;;22.90;99.90;;;;;;10331288;28;20225;-81
2022/06/12 22:43:10;;;;;;;5.68;5.00;;;22.80;99.90;;;;;;10293476;28;20629;-82
2022/06/12 22:48:12;;;;;;;4.97;4.57;;;22.80;99.90;;;;;;10284930;28;20563;-82
2022/06/12 22:53:15;;;;;;;4.82;4.43;;;22.80;99.90;;;;;;10280622;28;20296;-82
2022/06/12 22:58:17;;;;;;;4.68;4.22;;;22.70;99.90;;;;;;10273423;28;20623;-83
2022/06/12 23:03:20;;;;;;;4.55;4.15;;;22.80;99.90;;;;;;10281208;28;20228;-83
2022/06/12 23:08:23;;;;;;;4.75;4.35;;;22.70;99.90;;;;;;10272938;28;20616;-82
2022/06/12 23:13:25;;;;;;;4.82;4.43;;;22.70;99.90;;;;;;10289356;28;20248;-82
2022/06/12 23:18:28;;;;;;;5.05;4.55;;;22.70;99.90;;;;;;10282419;28;20789;-81
2022/06/12 23:23:31;;;;;;;5.00;4.55;;;22.70;99.90;;;;;;10289618;28;20233;-82
2022/06/12 23:28:38;;;;;;;4.72;4.35;;;22.60;99.90;;;;;;10289059;28;20229;-82
2022/06/12 23:33:40;;;;;;;4.78;4.35;;;22.60;99.90;;;;;;10246810;29;20288;-82
2022/06/12 23:38:43;;;;;;;4.32;3.95;;;22.60;99.90;;;;;;10278454;28;20280;-82
2022/06/12 23:43:46;;;;;;;4.78;4.25;;;22.60;99.90;;;;;;10271740;28;20233;-82
2022/06/12 23:48:52;;;;;;;4.75;4.35;;;22.60;99.90;;;;;;10314406;28;20224;-82
2022/06/12 23:53:55;;;;;;;4.20;3.90;;;22.60;99.90;;;;;;10310029;28;20299;-82
2022/06/12 23:58:59;;;;;;;4.63;4.22;;;22.60;99.90;;;;;;10306961;28;20284;-82
